Time;durP1;ratioP1;P1;durP2;ratioP2;P2;SDS_P1;SDS_P2;PMS_P1;PMS_P2;Temp;Humidity;BMP_temperature;BMP_pressure;BME280_temperature;BME280_humidity;BME280_pressure;Samples;Min_cycle;Max_cycle;Signal;HPM_P1;HPM_P2
2023/05/06 00:00:50;;;;;;;5.93;3.63;;;7.50;99.90;;;;;;5065474;28;20760;-79
2023/05/06 00:03:17;;;;;;;8.23;3.80;;;7.40;99.90;;;;;;5059478;28;20226;-79
2023/05/06 00:05:46;;;;;;;7.73;3.70;;;7.50;99.90;;;;;;5067456;28;20227;-80
2023/05/06 00:08:13;;;;;;;6.87;3.33;;;7.50;99.90;;;;;;5065029;28;20210;-80
2023/05/06 00:10:39;;;;;;;9.27;4.30;;;7.50;99.90;;;;;;5061371;28;20751;-80
2023/05/06 00:13:07;;;;;;;7.33;3.87;;;7.50;99.90;;;;;;5064861;28;20784;-80
2023/05/06 00:15:33;;;;;;;6.20;3.50;;;7.50;99.90;;;;;;5074410;28;20742;-80
2023/05/06 00:18:00;;;;;;;7.17;4.30;;;7.50;99.90;;;;;;5065879;28;20218;-81
2023/05/06 00:20:27;;;;;;;7.27;3.93;;;7.50;99.90;;;;;;5064734;28;20670;-80
2023/05/06 00:22:56;;;;;;;5.30;3.47;;;7.60;99.90;;;;;;5067161;28;20222;-80
2023/05/06 00:25:23;;;;;;;9.83;4.13;;;7.60;99.90;;;;;;5067699;28;20318;-79
2023/05/06 00:27:50;;;;;;;8.13;3.70;;;7.60;99.90;;;;;;5065562;28;20313;-79
2023/05/06 00:30:17;;;;;;;7.13;4.17;;;7.60;99.90;;;;;;5059689;28;20224;-79
2023/05/06 00:32:43;;;;;;;8.30;4.33;;;7.70;99.90;;;;;;5061423;28;20226;-78
2023/05/06 00:35:12;;;;;;;7.47;3.80;;;7.60;99.90;;;;;;5064123;28;20630;-78
2023/05/06 00:37:39;;;;;;;6.53;3.90;;;7.70;99.90;;;;;;5062576;28;20646;-79
2023/05/06 00:40:09;;;;;;;5.70;3.73;;;7.70;99.90;;;;;;5065625;28;20222;-79
2023/05/06 00:42:36;;;;;;;6.80;3.87;;;7.70;99.90;;;;;;5063667;28;20584;-79
2023/05/06 00:45:02;;;;;;;7.63;3.93;;;7.70;99.90;;;;;;5059417;28;20884;-79
2023/05/06 00:47:29;;;;;;;7.30;4.17;;;7.70;99.90;;;;;;5061164;28;20329;-79
2023/05/06 00:49:56;;;;;;;5.70;3.63;;;7.80;99.90;;;;;;5063384;28;20229;-79
2023/05/06 00:52:23;;;;;;;7.03;3.70;;;7.80;99.90;;;;;;5065488;28;20238;-79
2023/05/06 00:54:49;;;;;;;6.53;4.17;;;7.80;99.90;;;;;;5075999;28;20227;-79
2023/05/06 00:57:17;;;;;;;6.40;4.00;;;7.80;99.90;;;;;;5059063;28;20229;-79
2023/05/06 00:59:44;;;;;;;6.77;4.03;;;7.80;99.90;;;;;;5062168;28;20820;-79
2023/05/06 01:02:11;;;;;;;6.03;4.17;;;7.80;99.90;;;;;;5061792;28;20227;-79
2023/05/06 01:04:40;;;;;;;7.53;4.30;;;7.90;99.90;;;;;;5061245;28;20305;-79
2023/05/06 01:07:16;;;;;;;5.73;3.70;;;7.90;99.90;;;;;;5059833;28;20232;-79
2023/05/06 01:09:51;;;;;;;6.40;3.67;;;7.90;99.90;;;;;;5066126;28;20219;-80
2023/05/06 01:12:29;;;;;;;8.00;4.13;;;7.90;99.90;;;;;;5063373;28;20317;-80
2023/05/06 01:15:01;;;;;;;10.20;4.10;;;7.90;99.90;;;;;;5061361;28;20222;-81
2023/05/06 01:17:29;;;;;;;6.53;3.70;;;7.90;99.90;;;;;;5075285;28;20228;-81
2023/05/06 01:20:00;;;;;;;4.90;3.87;;;8.00;99.90;;;;;;5059172;28;20684;-81
2023/05/06 01:22:29;;;;;;;6.47;4.00;;;8.00;99.90;;;;;;5057844;28;20238;-81
2023/05/06 01:24:57;;;;;;;8.40;4.33;;;8.00;99.90;;;;;;5067679;28;20257;-80
2023/05/06 01:27:25;;;;;;;9.00;4.33;;;8.00;99.90;;;;;;5073039;28;20234;-81
2023/05/06 01:29:51;;;;;;;5.77;3.97;;;8.00;99.90;;;;;;5063963;28;21931;-80
2023/05/06 01:32:33;;;;;;;8.97;4.17;;;8.00;99.90;;;;;;5063993;28;20266;-80
2023/05/06 01:35:10;;;;;;;9.13;4.43;;;8.00;99.90;;;;;;5065065;28;20300;-80
2023/05/06 01:37:46;;;;;;;6.67;4.00;;;8.00;99.90;;;;;;5063028;28;20884;-80
2023/05/06 01:40:15;;;;;;;6.60;4.30;;;8.00;99.90;;;;;;5062498;28;20270;-80
2023/05/06 01:42:47;;;;;;;8.30;4.33;;;8.00;99.90;;;;;;5060930;28;20322;-80
2023/05/06 01:45:16;;;;;;;7.77;3.83;;;8.00;99.90;;;;;;5063617;28;20877;-80
2023/05/06 01:47:44;;;;;;;6.87;4.00;;;8.00;99.90;;;;;;5061370;28;20795;-80
2023/05/06 01:50:11;;;;;;;7.33;4.50;;;8.00;99.90;;;;;;5060312;28;20225;-80
2023/05/06 01:52:38;;;;;;;10.67;4.40;;;8.00;99.90;;;;;;5076304;28;20237;-79
2023/05/06 01:55:07;;;;;;;9.70;4.37;;;8.00;99.90;;;;;;5065933;28;20683;-78
2023/05/06 01:57:35;;;;;;;8.23;4.17;;;8.00;99.90;;;;;;5064293;28;20227;-78
2023/05/06 02:00:02;;;;;;;6.97;4.07;;;8.00;99.90;;;;;;5065990;28;20243;-79
2023/05/06 02:02:38;;;;;;;5.27;4.07;;;8.00;99.90;;;;;;5062574;28;20237;-79
2023/05/06 02:05:07;;;;;;;6.73;4.27;;;8.00;99.90;;;;;;5066862;28;20215;-79
2023/05/06 02:07:37;;;;;;;6.60;4.40;;;8.00;99.90;;;;;;5070334;28;20227;-79
2023/05/06 02:10:04;;;;;;;10.30;4.60;;;8.00;99.90;;;;;;5062948;28;20881;-79
2023/05/06 02:12:32;;;;;;;8.00;4.30;;;8.00;99.90;;;;;;5063632;28;20230;-79
2023/05/06 02:15:00;;;;;;;8.03;4.73;;;8.00;99.90;;;;;;5062076;28;20237;-79
2023/05/06 02:17:27;;;;;;;7.63;4.33;;;8.00;99.90;;;;;;5058081;28;22055;-79
2023/05/06 02:19:54;;;;;;;5.97;4.20;;;8.00;99.90;;;;;;5058559;28;20230;-79
2023/05/06 02:22:20;;;;;;;6.27;4.47;;;8.00;99.90;;;;;;5064801;28;21191;-80
2023/05/06 02:24:47;;;;;;;7.07;4.37;;;8.00;99.90;;;;;;5058762;28;20251;-79
2023/05/06 02:27:14;;;;;;;8.53;4.93;;;8.00;99.90;;;;;;5059227;28;20258;-79
2023/05/06 02:29:40;;;;;;;6.33;4.33;;;7.90;99.90;;;;;;5066350;28;20264;-79
2023/05/06 02:32:09;;;;;;;8.53;4.63;;;7.90;99.90;;;;;;5068790;28;20283;-81
2023/05/06 02:34:36;;;;;;;7.00;4.60;;;7.90;99.90;;;;;;5060687;28;20223;-80
2023/05/06 02:37:03;;;;;;;8.50;4.70;;;7.90;99.90;;;;;;5059645;28;20220;-80
2023/05/06 02:39:30;;;;;;;6.87;4.40;;;7.90;99.90;;;;;;5059499;28;20268;-80
2023/05/06 02:41:57;;;;;;;7.37;4.80;;;8.00;99.90;;;;;;5063699;28;20219;-80
2023/05/06 02:44:24;;;;;;;6.93;4.20;;;7.90;99.90;;;;;;5062946;28;22410;-80
2023/05/06 02:46:51;;;;;;;5.83;4.00;;;7.90;99.90;;;;;;5061788;28;20303;-79
2023/05/06 02:49:19;;;;;;;6.03;4.90;;;7.90;99.90;;;;;;5065935;28;20215;-79
2023/05/06 02:51:46;;;;;;;8.60;4.77;;;7.90;99.90;;;;;;5064424;28;20251;-79
2023/05/06 02:54:12;;;;;;;8.37;4.77;;;7.80;99.90;;;;;;5062061;28;20308;-79
2023/05/06 02:56:42;;;;;;;8.17;4.80;;;7.80;99.90;;;;;;5063093;28;20712;-80
2023/05/06 02:59:08;;;;;;;7.83;4.47;;;7.80;99.90;;;;;;5062323;28;20242;-80
2023/05/06 03:01:35;;;;;;;7.40;4.83;;;7.80;99.90;;;;;;5060953;28;20238;-79
2023/05/06 03:04:02;;;;;;;8.50;5.10;;;7.80;99.90;;;;;;5063034;28;20302;-78
2023/05/06 03:06:30;;;;;;;7.80;4.53;;;7.80;99.90;;;;;;5063713;28;20230;-80
2023/05/06 03:08:57;;;;;;;7.73;4.60;;;7.90;99.90;;;;;;5063269;28;20262;-79
2023/05/06 03:11:24;;;;;;;7.30;4.77;;;7.90;99.90;;;;;;5063327;28;20235;-80
2023/05/06 03:13:51;;;;;;;7.43;4.67;;;7.90;99.90;;;;;;5060917;28;20278;-80
2023/05/06 03:16:18;;;;;;;5.63;4.37;;;7.90;99.90;;;;;;5054802;28;20243;-79
2023/05/06 03:18:49;;;;;;;6.97;4.80;;;7.90;99.90;;;;;;5062007;28;20246;-79
2023/05/06 03:21:16;;;;;;;7.50;4.77;;;7.90;99.90;;;;;;5065862;28;20234;-80
2023/05/06 03:23:46;;;;;;;8.37;5.13;;;7.80;99.90;;;;;;5069550;28;20223;-79
2023/05/06 03:26:13;;;;;;;6.80;4.90;;;7.80;99.90;;;;;;5071096;28;20225;-79
2023/05/06 03:28:42;;;;;;;6.10;4.27;;;7.80;99.90;;;;;;5060810;28;20296;-80
2023/05/06 03:31:09;;;;;;;6.40;4.70;;;7.80;99.90;;;;;;5060828;28;20226;-79
2023/05/06 03:33:36;;;;;;;6.87;4.50;;;7.80;99.90;;;;;;5064153;28;20324;-79
2023/05/06 03:36:05;;;;;;;5.70;4.73;;;7.80;99.90;;;;;;5062143;28;20776;-80
2023/05/06 03:38:33;;;;;;;7.07;4.80;;;7.80;99.90;;;;;;5062086;28;20338;-79
2023/05/06 03:41:04;;;;;;;6.57;4.40;;;7.80;99.90;;;;;;5062337;28;20243;-78
2023/05/06 03:43:32;;;;;;;6.53;4.53;;;7.80;99.90;;;;;;5078963;28;20308;-79
2023/05/06 03:46:01;;;;;;;7.00;4.63;;;7.80;99.90;;;;;;5062181;28;20258;-79
2023/05/06 03:48:30;;;;;;;6.70;4.63;;;7.80;99.90;;;;;;5062242;28;20234;-79
2023/05/06 03:50:57;;;;;;;5.33;4.30;;;7.80;99.90;;;;;;5062334;28;20230;-79
2023/05/06 03:53:24;;;;;;;6.57;4.40;;;7.80;99.90;;;;;;5076341;28;20227;-79
2023/05/06 03:55:52;;;;;;;7.47;4.87;;;7.80;99.90;;;;;;5082294;28;20313;-79
2023/05/06 03:58:20;;;;;;;7.10;4.77;;;7.80;99.90;;;;;;5072411;28;20224;-79
2023/05/06 04:00:47;;;;;;;6.87;4.80;;;7.80;99.90;;;;;;5062002;28;20235;-79
2023/05/06 04:03:14;;;;;;;8.03;5.20;;;7.80;99.90;;;;;;5063040;28;20273;-79
2023/05/06 04:05:45;;;;;;;8.13;4.73;;;7.80;99.90;;;;;;5061688;28;20288;-79
2023/05/06 04:08:15;;;;;;;7.87;5.00;;;7.80;99.90;;;;;;5041728;28;20226;-78
2023/05/06 04:10:43;;;;;;;6.93;4.63;;;7.80;99.90;;;;;;5059084;28;20247;-78
2023/05/06 04:13:28;;;;;;;8.30;4.80;;;7.80;99.90;;;;;;5060443;28;20241;-78
2023/05/06 04:15:58;;;;;;;7.30;5.20;;;7.80;99.90;;;;;;5063833;28;20285;-78
2023/05/06 04:18:31;;;;;;;7.30;4.83;;;7.80;99.90;;;;;;5049995;28;20761;-78
2023/05/06 04:21:03;;;;;;;5.77;4.80;;;7.80;99.90;;;;;;5056591;28;20238;-79
2023/05/06 04:23:34;;;;;;;7.50;5.50;;;7.80;99.90;;;;;;5052853;28;20229;-79
2023/05/06 04:26:01;;;;;;;7.90;5.20;;;7.70;99.90;;;;;;5069778;28;20227;-78
2023/05/06 04:28:32;;;;;;;6.70;4.77;;;7.70;99.90;;;;;;5060992;28;20242;-78
2023/05/06 04:31:01;;;;;;;5.97;4.87;;;7.80;99.90;;;;;;5061703;28;20298;-80
2023/05/06 04:33:36;;;;;;;7.33;4.93;;;7.80;99.90;;;;;;5062111;28;20223;-79
2023/05/06 04:36:08;;;;;;;7.03;4.60;;;7.80;99.90;;;;;;5067273;28;20234;-79
2023/05/06 04:38:37;;;;;;;7.73;5.13;;;7.80;99.90;;;;;;5082083;28;20226;-79
2023/05/06 04:41:05;;;;;;;6.67;4.87;;;7.80;99.90;;;;;;5075017;28;20604;-78
2023/05/06 04:43:34;;;;;;;6.77;5.13;;;7.80;99.90;;;;;;5059750;28;20237;-78
2023/05/06 04:46:09;;;;;;;10.77;4.90;;;7.80;99.90;;;;;;5060187;28;20272;-79
2023/05/06 04:48:38;;;;;;;6.27;4.80;;;7.80;99.90;;;;;;5062259;28;20315;-80
2023/05/06 04:51:06;;;;;;;8.27;5.10;;;7.80;99.90;;;;;;5067429;28;20272;-79
2023/05/06 04:53:33;;;;;;;8.40;5.60;;;7.90;99.90;;;;;;5066966;28;20261;-78
2023/05/06 04:56:00;;;;;;;6.97;5.20;;;7.90;99.90;;;;;;5067057;28;20239;-78
2023/05/06 04:58:27;;;;;;;6.13;4.63;;;7.90;99.90;;;;;;5056509;28;20222;-78
2023/05/06 05:00:57;;;;;;;6.97;5.10;;;7.90;99.90;;;;;;5065535;28;20219;-78
2023/05/06 05:03:24;;;;;;;9.23;5.83;;;7.90;99.90;;;;;;5066044;28;20779;-79
2023/05/06 05:05:53;;;;;;;6.70;5.33;;;7.90;99.90;;;;;;5060909;28;20216;-79
2023/05/06 05:08:20;;;;;;;7.60;5.57;;;7.90;99.90;;;;;;5058955;28;20232;-80
2023/05/06 05:10:47;;;;;;;7.53;5.83;;;8.00;99.90;;;;;;5066829;28;20245;-81
2023/05/06 05:13:20;;;;;;;6.87;5.07;;;8.00;99.90;;;;;;5060688;28;20273;-81
2023/05/06 05:15:48;;;;;;;7.13;5.50;;;8.00;99.90;;;;;;5059456;28;20231;-81
2023/05/06 05:18:18;;;;;;;8.83;6.13;;;8.00;99.90;;;;;;5066362;28;20220;-81
2023/05/06 05:20:46;;;;;;;6.67;5.23;;;8.00;99.90;;;;;;5076295;28;20805;-81
2023/05/06 05:23:14;;;;;;;10.77;6.03;;;8.00;99.90;;;;;;5058141;28;20981;-81
2023/05/06 05:25:43;;;;;;;9.07;5.30;;;8.00;99.90;;;;;;5060557;28;20223;-81
2023/05/06 05:28:10;;;;;;;8.30;5.70;;;8.00;99.90;;;;;;5063822;28;20227;-81
2023/05/06 05:30:38;;;;;;;7.77;5.67;;;8.00;99.90;;;;;;5063466;28;20229;-81
2023/05/06 05:33:06;;;;;;;6.53;5.50;;;8.00;99.90;;;;;;5060192;28;20280;-80
2023/05/06 05:35:34;;;;;;;8.67;6.03;;;8.00;99.90;;;;;;5054836;28;20230;-80
2023/05/06 05:38:01;;;;;;;8.50;5.77;;;8.00;99.90;;;;;;5060374;28;20227;-80
2023/05/06 05:40:28;;;;;;;9.30;6.13;;;8.00;99.90;;;;;;5058619;28;21414;-80
2023/05/06 05:42:56;;;;;;;8.27;5.97;;;8.00;99.90;;;;;;5063084;28;20234;-80
2023/05/06 05:45:30;;;;;;;8.20;5.77;;;8.00;99.90;;;;;;5055490;28;20610;-79
2023/05/06 05:47:57;;;;;;;7.90;5.57;;;8.10;99.90;;;;;;5061878;28;20680;-79
2023/05/06 05:50:25;;;;;;;9.10;5.90;;;8.10;99.90;;;;;;5060245;28;22413;-78
2023/05/06 05:52:54;;;;;;;8.63;5.40;;;8.10;99.90;;;;;;5060973;28;20254;-77
2023/05/06 05:55:21;;;;;;;7.20;5.80;;;8.20;99.90;;;;;;5065551;28;20287;-77
2023/05/06 05:57:50;;;;;;;7.83;5.57;;;8.10;99.90;;;;;;5061720;28;20227;-77
2023/05/06 06:00:18;;;;;;;8.50;5.60;;;8.20;99.90;;;;;;5061054;28;20222;-77
2023/05/06 06:02:45;;;;;;;7.47;6.17;;;8.20;99.90;;;;;;5043712;28;20227;-77
2023/05/06 06:05:15;;;;;;;8.50;5.97;;;8.20;99.90;;;;;;5071017;28;20574;-78
2023/05/06 06:07:42;;;;;;;8.40;6.40;;;8.20;99.90;;;;;;5069134;28;20231;-78
2023/05/06 06:10:12;;;;;;;11.67;5.93;;;8.20;99.90;;;;;;5068802;28;20215;-77
2023/05/06 06:12:39;;;;;;;8.20;6.40;;;8.20;99.90;;;;;;5062873;28;20238;-77
2023/05/06 06:15:07;;;;;;;9.67;5.90;;;8.20;99.90;;;;;;5069907;28;20225;-77
2023/05/06 06:17:34;;;;;;;8.70;5.50;;;8.20;99.90;;;;;;5064881;28;20227;-79
2023/05/06 06:20:03;;;;;;;8.53;5.90;;;8.30;99.90;;;;;;5066008;28;20700;-78
2023/05/06 06:22:30;;;;;;;8.47;5.93;;;8.30;99.90;;;;;;5061006;28;20657;-78
2023/05/06 06:24:57;;;;;;;10.80;6.50;;;8.30;99.90;;;;;;5063541;28;20235;-78
2023/05/06 06:27:25;;;;;;;10.27;5.80;;;8.30;99.90;;;;;;5061402;28;20792;-77
2023/05/06 06:29:52;;;;;;;9.50;5.90;;;8.30;99.90;;;;;;5063471;28;20270;-77
2023/05/06 06:32:19;;;;;;;24.73;6.50;;;8.30;99.90;;;;;;5065510;28;20229;-78
2023/05/06 06:34:45;;;;;;;14.27;6.20;;;8.40;99.90;;;;;;5066884;28;20224;-77
2023/05/06 06:37:12;;;;;;;8.47;5.40;;;8.40;99.90;;;;;;5067318;28;20231;-78
2023/05/06 06:39:39;;;;;;;8.67;6.13;;;8.40;99.90;;;;;;5067720;28;20223;-78
2023/05/06 06:42:06;;;;;;;9.70;6.33;;;8.40;99.90;;;;;;5070357;28;20917;-77
2023/05/06 06:44:40;;;;;;;10.83;5.50;;;8.40;99.90;;;;;;5068183;28;20229;-77
2023/05/06 06:47:06;;;;;;;8.47;5.97;;;8.40;99.90;;;;;;5066016;28;20242;-78
2023/05/06 06:49:33;;;;;;;7.63;5.53;;;8.50;99.90;;;;;;5072821;28;20226;-78
2023/05/06 06:52:00;;;;;;;8.80;5.93;;;8.40;99.90;;;;;;5057030;28;20716;-78
2023/05/06 06:54:26;;;;;;;8.13;5.23;;;8.40;99.90;;;;;;5056911;28;20697;-77
2023/05/06 06:56:56;;;;;;;8.67;6.13;;;8.50;99.90;;;;;;5066045;28;20321;-78
2023/05/06 06:59:23;;;;;;;9.23;5.73;;;8.40;99.90;;;;;;5065624;28;20734;-78
2023/05/06 07:01:51;;;;;;;8.90;5.57;;;8.50;99.90;;;;;;5059547;28;20317;-77
2023/05/06 07:04:17;;;;;;;8.77;5.33;;;8.50;99.90;;;;;;5059844;28;20238;-77
2023/05/06 07:06:44;;;;;;;8.63;6.10;;;8.50;99.90;;;;;;5062853;28;20321;-78
2023/05/06 07:09:12;;;;;;;8.23;6.07;;;8.50;99.90;;;;;;5054798;28;20309;-78
2023/05/06 07:11:38;;;;;;;7.60;6.20;;;8.50;99.90;;;;;;5044559;28;20233;-78
2023/05/06 07:14:05;;;;;;;10.57;6.17;;;8.50;99.90;;;;;;5059782;28;20223;-78
2023/05/06 07:16:32;;;;;;;11.23;5.47;;;8.60;99.90;;;;;;5062923;28;20218;-78
2023/05/06 07:19:00;;;;;;;8.00;5.93;;;8.60;99.90;;;;;;5061068;28;20218;-78
2023/05/06 07:21:27;;;;;;;8.10;5.37;;;8.60;99.90;;;;;;5063203;28;20906;-78
2023/05/06 07:23:54;;;;;;;6.70;5.30;;;8.60;99.90;;;;;;5060239;28;20253;-78
2023/05/06 07:26:21;;;;;;;6.83;5.97;;;8.70;99.90;;;;;;5065659;28;20218;-78
2023/05/06 07:28:47;;;;;;;8.27;6.17;;;8.70;99.90;;;;;;5064292;28;20834;-79
2023/05/06 07:31:15;;;;;;;6.77;5.47;;;8.70;99.90;;;;;;5059672;28;20219;-79
2023/05/06 07:33:41;;;;;;;8.63;6.13;;;8.80;99.90;;;;;;5065363;28;20333;-79
2023/05/06 07:36:10;;;;;;;9.37;5.53;;;8.80;99.90;;;;;;5065007;28;20244;-79
2023/05/06 07:38:36;;;;;;;8.47;5.43;;;8.80;99.90;;;;;;5064966;28;20593;-79
2023/05/06 07:41:03;;;;;;;9.40;5.77;;;8.90;99.90;;;;;;5064981;28;20762;-79
2023/05/06 07:43:30;;;;;;;7.27;6.07;;;8.90;99.90;;;;;;5062988;28;20223;-79
2023/05/06 07:46:01;;;;;;;6.67;5.40;;;8.90;99.90;;;;;;5063069;28;20257;-79
2023/05/06 07:48:28;;;;;;;8.60;6.10;;;8.90;99.90;;;;;;5062484;28;20241;-79
2023/05/06 07:50:55;;;;;;;8.30;6.20;;;8.90;99.90;;;;;;5065735;28;20713;-79
2023/05/06 07:53:23;;;;;;;7.67;6.17;;;8.90;99.90;;;;;;5061958;28;20314;-79
2023/05/06 07:55:51;;;;;;;8.00;6.17;;;8.90;99.90;;;;;;5062407;28;20230;-79
2023/05/06 07:58:18;;;;;;;9.73;6.00;;;9.00;99.90;;;;;;5054837;28;20289;-77
2023/05/06 08:00:44;;;;;;;8.63;6.37;;;9.00;99.90;;;;;;5061143;28;20215;-79
2023/05/06 08:03:11;;;;;;;7.97;6.30;;;9.10;99.90;;;;;;5061641;28;20227;-79
2023/05/06 08:05:38;;;;;;;9.53;6.40;;;9.10;99.90;;;;;;5061399;28;20831;-79
2023/05/06 08:08:05;;;;;;;9.07;6.27;;;9.20;99.90;;;;;;5061802;28;20215;-79
2023/05/06 08:10:33;;;;;;;8.33;6.40;;;9.30;99.90;;;;;;5055599;28;22415;-78
2023/05/06 08:13:00;;;;;;;8.60;6.13;;;9.40;99.90;;;;;;5052228;28;20228;-78
2023/05/06 08:15:27;;;;;;;8.43;6.20;;;9.40;99.90;;;;;;5056575;28;20338;-78
2023/05/06 08:17:54;;;;;;;11.37;6.17;;;9.50;99.90;;;;;;5059247;28;20262;-78
2023/05/06 08:20:21;;;;;;;10.00;6.17;;;9.60;99.90;;;;;;5059114;28;20215;-78
2023/05/06 08:22:47;;;;;;;6.73;5.73;;;9.70;99.90;;;;;;5047084;28;20736;-78
2023/05/06 08:25:15;;;;;;;8.17;5.80;;;9.70;99.90;;;;;;5057162;28;20230;-79
2023/05/06 08:27:43;;;;;;;9.27;6.13;;;9.80;99.90;;;;;;5063400;28;20892;-79
2023/05/06 08:30:11;;;;;;;9.53;6.13;;;9.80;99.90;;;;;;5066255;28;20230;-78
2023/05/06 08:32:38;;;;;;;9.60;6.27;;;9.90;99.90;;;;;;5062727;28;20269;-78
2023/05/06 08:35:05;;;;;;;8.20;6.23;;;9.90;99.90;;;;;;5064874;28;20223;-78
2023/05/06 08:37:32;;;;;;;9.03;6.57;;;9.90;99.90;;;;;;5066375;28;20745;-78
2023/05/06 08:39:59;;;;;;;10.00;7.10;;;9.90;99.90;;;;;;5057145;28;20212;-78
2023/05/06 08:42:27;;;;;;;9.33;6.60;;;10.00;99.90;;;;;;5065766;28;20695;-78
2023/05/06 08:44:55;;;;;;;8.20;6.50;;;10.00;99.90;;;;;;5066439;28;20226;-77
2023/05/06 08:47:22;;;;;;;9.63;7.20;;;10.10;99.90;;;;;;5065173;28;20215;-78
2023/05/06 08:49:49;;;;;;;9.70;6.57;;;10.20;99.90;;;;;;5068666;28;20318;-79
2023/05/06 08:52:16;;;;;;;8.33;6.43;;;10.20;99.90;;;;;;5070685;28;20226;-78
2023/05/06 08:54:43;;;;;;;9.83;6.30;;;10.30;99.90;;;;;;5059744;28;20218;-78
2023/05/06 08:57:11;;;;;;;8.53;6.10;;;10.40;99.90;;;;;;5062798;28;20288;-78
2023/05/06 08:59:39;;;;;;;8.33;5.90;;;10.40;99.90;;;;;;5079238;28;20235;-77
2023/05/06 09:02:07;;;;;;;7.33;6.40;;;10.40;99.90;;;;;;5064366;28;20234;-79
2023/05/06 09:04:35;;;;;;;9.50;6.20;;;10.50;99.90;;;;;;5064706;28;20222;-78
2023/05/06 09:07:01;;;;;;;8.50;6.50;;;10.50;99.90;;;;;;5066363;28;20277;-78
2023/05/06 09:09:28;;;;;;;7.90;6.33;;;10.50;99.90;;;;;;5062997;28;20233;-78
2023/05/06 09:11:56;;;;;;;8.50;6.20;;;10.50;99.90;;;;;;5062862;28;20232;-78
2023/05/06 09:14:23;;;;;;;10.07;6.57;;;10.50;99.90;;;;;;5065076;28;20218;-78
2023/05/06 09:16:52;;;;;;;10.53;7.50;;;10.50;99.90;;;;;;5064478;28;20309;-78
2023/05/06 09:19:21;;;;;;;8.07;6.77;;;10.50;99.90;;;;;;5066103;28;20215;-78
2023/05/06 09:21:49;;;;;;;11.03;7.13;;;10.50;99.90;;;;;;5068336;28;20240;-78
2023/05/06 09:24:17;;;;;;;11.47;6.93;;;10.50;99.90;;;;;;5057568;28;20229;-77
2023/05/06 09:26:45;;;;;;;8.70;6.60;;;10.50;99.90;;;;;;5064520;28;20240;-78
2023/05/06 09:29:11;;;;;;;9.30;7.30;;;10.40;99.90;;;;;;5068662;28;20241;-79
2023/05/06 09:31:41;;;;;;;8.43;6.90;;;10.40;99.90;;;;;;5066000;28;20309;-78
2023/05/06 09:34:08;;;;;;;13.50;8.10;;;10.40;99.90;;;;;;5067008;28;20218;-79
2023/05/06 09:36:37;;;;;;;13.27;9.57;;;10.40;99.90;;;;;;5064838;28;20219;-78
2023/05/06 09:39:04;;;;;;;11.40;8.90;;;10.40;99.90;;;;;;5063034;28;20290;-79
2023/05/06 09:41:31;;;;;;;8.93;7.67;;;10.40;99.90;;;;;;5066121;28;20848;-79
2023/05/06 09:43:58;;;;;;;10.17;6.27;;;10.40;99.90;;;;;;5063283;28;20654;-78
2023/05/06 09:46:26;;;;;;;9.27;6.63;;;10.40;99.90;;;;;;5066343;28;21013;-79
2023/05/06 09:48:55;;;;;;;7.03;6.33;;;10.40;99.90;;;;;;5062110;28;20290;-79
2023/05/06 09:51:22;;;;;;;8.07;6.20;;;10.30;99.90;;;;;;5066453;28;20223;-78
2023/05/06 09:53:52;;;;;;;8.10;6.40;;;10.30;99.90;;;;;;5072571;28;20234;-78
2023/05/06 09:56:20;;;;;;;8.67;6.10;;;10.30;99.90;;;;;;5061103;28;20223;-78
2023/05/06 09:58:48;;;;;;;8.17;6.50;;;10.30;99.90;;;;;;5058475;28;20230;-78
2023/05/06 10:01:16;;;;;;;9.30;6.70;;;10.30;99.90;;;;;;5056130;28;20212;-77
2023/05/06 10:03:45;;;;;;;8.33;6.37;;;10.30;99.90;;;;;;5061049;28;20235;-78
2023/05/06 10:06:12;;;;;;;9.10;6.50;;;10.20;99.90;;;;;;5064487;28;20306;-78
2023/05/06 10:08:41;;;;;;;10.93;6.90;;;10.20;99.90;;;;;;5067684;28;20906;-77
2023/05/06 10:11:10;;;;;;;8.73;6.73;;;10.20;99.90;;;;;;5061780;28;20220;-77
2023/05/06 10:13:38;;;;;;;11.20;7.70;;;10.10;99.90;;;;;;5066814;28;20227;-77
2023/05/06 10:16:07;;;;;;;10.53;6.43;;;10.00;99.90;;;;;;5066474;28;20602;-77
2023/05/06 10:18:36;;;;;;;8.13;6.73;;;10.00;99.90;;;;;;5066998;28;20228;-77
2023/05/06 10:21:08;;;;;;;10.43;7.03;;;9.90;99.90;;;;;;5060020;28;20617;-77
2023/05/06 10:23:42;;;;;;;12.03;7.40;;;9.90;99.90;;;;;;5067421;28;20230;-77
2023/05/06 10:26:11;;;;;;;8.97;7.00;;;9.90;99.90;;;;;;5070027;28;20246;-77
2023/05/06 10:28:40;;;;;;;10.73;7.13;;;10.00;99.90;;;;;;5069617;28;20231;-77
2023/05/06 10:31:11;;;;;;;8.73;6.27;;;10.10;99.90;;;;;;5067397;28;20254;-77
2023/05/06 10:33:38;;;;;;;10.13;7.10;;;10.20;99.90;;;;;;5060062;28;20245;-77
2023/05/06 10:36:18;;;;;;;9.23;6.17;;;10.20;99.90;;;;;;5065177;28;20220;-77
2023/05/06 10:38:48;;;;;;;11.33;7.00;;;10.30;99.90;;;;;;5062145;28;20273;-77
2023/05/06 10:41:17;;;;;;;11.30;6.30;;;10.30;99.90;;;;;;5066334;28;20314;-77
2023/05/06 10:43:45;;;;;;;11.87;7.60;;;10.30;99.90;;;;;;5066588;28;20227;-77
2023/05/06 10:46:12;;;;;;;11.30;6.87;;;10.30;99.90;;;;;;5066728;28;20212;-77
2023/05/06 10:49:00;;;;;;;8.40;6.30;;;10.30;99.90;;;;;;5061408;28;20238;-77
2023/05/06 10:51:28;;;;;;;9.17;6.37;;;10.20;99.90;;;;;;5066712;28;20235;-77
2023/05/06 10:53:56;;;;;;;8.33;6.10;;;10.20;99.90;;;;;;5075233;28;20241;-77
2023/05/06 10:56:24;;;;;;;8.23;6.27;;;10.20;99.90;;;;;;5065762;28;20242;-77
2023/05/06 10:58:53;;;;;;;8.80;6.07;;;10.30;99.90;;;;;;5069305;28;20227;-77
2023/05/06 11:01:21;;;;;;;7.87;5.93;;;10.30;99.90;;;;;;5057631;28;20782;-77
2023/05/06 11:03:50;;;;;;;10.20;6.27;;;10.40;99.90;;;;;;5062184;28;20225;-77
2023/05/06 11:09:17;;;;;;;8.93;6.33;;;10.50;99.90;;;;;;5040433;27;21248;-77
2023/05/06 11:11:53;;;;;;;10.57;6.27;;;10.60;99.90;;;;;;5022928;28;20304;-78
2023/05/06 11:14:27;;;;;;;8.90;6.27;;;10.70;99.90;;;;;;5012456;28;20242;-78
2023/05/06 11:16:56;;;;;;;10.53;6.53;;;10.80;99.90;;;;;;5013237;28;20236;-78
2023/05/06 11:19:24;;;;;;;9.67;6.87;;;10.80;99.90;;;;;;5016968;28;20303;-78
2023/05/06 11:21:52;;;;;;;10.30;7.30;;;10.90;99.90;;;;;;5007949;28;20440;-78
2023/05/06 11:24:27;;;;;;;10.87;7.03;;;10.90;99.90;;;;;;5034641;28;20236;-77
2023/05/06 11:26:54;;;;;;;8.70;6.63;;;10.90;99.90;;;;;;5019936;28;20227;-78
2023/05/06 11:29:22;;;;;;;10.90;7.10;;;11.00;99.90;;;;;;5015239;28;20224;-78
2023/05/06 11:31:49;;;;;;;11.20;6.73;;;11.00;99.90;;;;;;5022784;28;20223;-77
2023/05/06 11:34:22;;;;;;;9.13;7.03;;;11.00;99.90;;;;;;5014852;28;20636;-77
2023/05/06 11:37:00;;;;;;;10.43;6.53;;;11.10;99.90;;;;;;5020704;28;20642;-78
2023/05/06 11:39:30;;;;;;;9.20;6.77;;;11.10;99.90;;;;;;5014601;28;20227;-78
2023/05/06 11:41:58;;;;;;;8.20;6.53;;;11.20;99.90;;;;;;5014372;28;20251;-78
2023/05/06 11:44:27;;;;;;;10.97;6.63;;;11.30;99.90;;;;;;5020455;28;21012;-78
2023/05/06 11:46:58;;;;;;;11.23;7.00;;;11.30;99.90;;;;;;5020268;28;20326;-78
2023/05/06 11:49:25;;;;;;;9.63;6.70;;;11.40;99.90;;;;;;5010361;28;20232;-78
2023/05/06 11:51:52;;;;;;;10.13;6.67;;;11.40;99.90;;;;;;5013302;28;20994;-78
2023/05/06 11:54:21;;;;;;;10.93;7.20;;;11.30;99.90;;;;;;5015595;28;20716;-80
2023/05/06 11:56:52;;;;;;;10.37;7.00;;;11.30;99.90;;;;;;5019034;28;20670;-81
2023/05/06 11:59:27;;;;;;;9.77;6.97;;;11.20;99.90;;;;;;5017955;28;20217;-81
2023/05/06 12:01:54;;;;;;;11.93;7.20;;;11.20;99.90;;;;;;5022071;28;20225;-81
2023/05/06 12:04:20;;;;;;;9.53;6.77;;;11.20;99.90;;;;;;5010461;28;20226;-81
2023/05/06 12:06:47;;;;;;;12.23;7.50;;;11.20;99.90;;;;;;5019919;28;20238;-81
2023/05/06 12:09:14;;;;;;;8.57;6.73;;;11.30;99.90;;;;;;5016841;28;20255;-81
2023/05/06 12:11:42;;;;;;;11.20;6.87;;;11.30;99.90;;;;;;5018768;28;20225;-81
2023/05/06 12:14:11;;;;;;;10.90;7.80;;;11.40;99.90;;;;;;5032056;28;20326;-81
2023/05/06 12:16:38;;;;;;;10.57;6.67;;;11.40;99.90;;;;;;5019441;28;20221;-81
2023/05/06 12:19:05;;;;;;;12.30;7.43;;;11.50;99.90;;;;;;5012027;28;20733;-80
2023/05/06 12:21:32;;;;;;;11.87;7.63;;;11.50;99.90;;;;;;5005566;28;20229;-80
2023/05/06 12:24:00;;;;;;;9.57;6.77;;;11.50;99.90;;;;;;4999528;28;20874;-80
2023/05/06 12:26:29;;;;;;;9.80;6.73;;;11.50;99.90;;;;;;5004545;28;20225;-81
2023/05/06 12:29:16;;;;;;;12.40;7.40;;;11.60;99.90;;;;;;4994814;28;20230;-80
2023/05/06 12:31:45;;;;;;;10.07;6.57;;;11.60;99.90;;;;;;5005372;28;20711;-80
2023/05/06 12:34:12;;;;;;;10.57;7.00;;;11.60;99.90;;;;;;5003900;28;20225;-81
2023/05/06 12:36:40;;;;;;;9.37;6.23;;;11.60;99.90;;;;;;4999185;28;20775;-80
2023/05/06 12:39:07;;;;;;;10.07;6.80;;;11.60;99.90;;;;;;5002187;28;20241;-80
2023/05/06 12:41:39;;;;;;;9.33;6.63;;;11.70;99.90;;;;;;5006181;28;20891;-80
2023/05/06 12:44:35;;;;;;;9.77;6.43;;;11.80;99.90;;;;;;4989205;28;20229;-79
2023/05/06 12:47:03;;;;;;;10.13;6.07;;;11.90;99.90;;;;;;5005108;28;20313;-77
2023/05/06 12:49:45;;;;;;;8.53;5.83;;;12.20;99.90;;;;;;5006236;28;20794;-77
2023/05/06 12:52:12;;;;;;;9.97;6.13;;;12.30;99.90;;;;;;5002944;28;20234;-77
2023/05/06 12:54:38;;;;;;;8.47;5.80;;;12.50;99.90;;;;;;5006393;28;20227;-77
2023/05/06 12:57:05;;;;;;;8.87;5.83;;;12.70;99.90;;;;;;5006831;28;20257;-77
2023/05/06 12:59:34;;;;;;;7.80;5.80;;;12.80;99.90;;;;;;4996607;28;20969;-77
2023/05/06 13:02:01;;;;;;;11.30;6.53;;;12.90;99.90;;;;;;5003011;28;20240;-77